sensor_id;sensor_type;location;lat;lon;timestamp;pressure;altitude;pressure_sealevel;temperature;humidity
2178;BME280;1095;50.992;6.798;2023-07-31T00:01:40;100526.84;;;16.82;100.00
2178;BME280;1095;50.992;6.798;2023-07-31T00:04:10;100502.03;;;16.77;100.00
2178;BME280;1095;50.992;6.798;2023-07-31T00:06:46;100497.31;;;16.66;100.00
2178;BME280;1095;50.992;6.798;2023-07-31T00:09:15;100517.69;;;16.78;100.00
2178;BME280;1095;50.992;6.798;2023-07-31T00:11:42;100507.91;;;16.72;100.00
2178;BME280;1095;50.992;6.798;2023-07-31T00:14:09;100523.19;;;16.83;100.00
2178;BME280;1095;50.992;6.798;2023-07-31T00:16:44;100499.97;;;16.66;100.00
2178;BME280;1095;50.992;6.798;2023-07-31T00:19:11;100531.50;;;16.80;100.00
2178;BME280;1095;50.992;6.798;2023-07-31T00:21:44;100535.38;;;16.84;100.00
2178;BME280;1095;50.992;6.798;2023-07-31T00:24:11;100538.63;;;16.80;100.00
2178;BME280;1095;50.992;6.798;2023-07-31T00:26:44;100529.69;;;16.81;100.00
2178;BME280;1095;50.992;6.798;2023-07-31T00:29:43;100528.47;;;16.83;100.00
2178;BME280;1095;50.992;6.798;2023-07-31T00:35:35;100492.66;;;16.68;100.00
2178;BME280;1095;50.992;6.798;2023-07-31T00:36:06;100542.75;;;16.96;100.00
2178;BME280;1095;50.992;6.798;2023-07-31T00:38:53;100529.31;;;16.90;100.00
2178;BME280;1095;50.992;6.798;2023-07-31T00:41:25;100544.78;;;16.94;100.00
2178;BME280;1095;50.992;6.798;2023-07-31T00:43:52;100530.31;;;16.83;100.00
2178;BME280;1095;50.992;6.798;2023-07-31T00:46:19;100536.22;;;16.91;100.00
2178;BME280;1095;50.992;6.798;2023-07-31T00:48:46;100531.72;;;16.85;100.00
2178;BME280;1095;50.992;6.798;2023-07-31T00:51:13;100537.47;;;16.96;100.00
2178;BME280;1095;50.992;6.798;2023-07-31T00:53:42;100529.94;;;16.92;100.00
2178;BME280;1095;50.992;6.798;2023-07-31T00:56:09;100533.19;;;16.95;100.00
2178;BME280;1095;50.992;6.798;2023-07-31T00:58:37;100523.63;;;16.94;100.00
2178;BME280;1095;50.992;6.798;2023-07-31T01:01:03;100516.72;;;16.92;100.00
2178;BME280;1095;50.992;6.798;2023-07-31T01:03:30;100518.13;;;16.95;100.00
2178;BME280;1095;50.992;6.798;2023-07-31T01:06:09;100516.31;;;16.96;100.00
2178;BME280;1095;50.992;6.798;2023-07-31T01:08:48;100498.22;;;16.92;100.00
2178;BME280;1095;50.992;6.798;2023-07-31T01:11:25;100479.28;;;16.89;100.00
2178;BME280;1095;50.992;6.798;2023-07-31T01:13:54;100504.91;;;16.88;100.00
2178;BME280;1095;50.992;6.798;2023-07-31T01:16:25;100505.13;;;16.94;100.00
2178;BME280;1095;50.992;6.798;2023-07-31T01:18:54;100493.53;;;16.95;100.00
2178;BME280;1095;50.992;6.798;2023-07-31T01:21:41;100502.69;;;16.99;100.00
2178;BME280;1095;50.992;6.798;2023-07-31T01:24:29;100498.59;;;17.03;100.00
2178;BME280;1095;50.992;6.798;2023-07-31T01:27:06;100496.19;;;16.95;100.00
2178;BME280;1095;50.992;6.798;2023-07-31T01:29:38;100504.50;;;17.05;100.00
2178;BME280;1095;50.992;6.798;2023-07-31T01:32:10;100493.31;;;17.03;100.00
2178;BME280;1095;50.992;6.798;2023-07-31T01:34:39;100501.47;;;17.08;100.00
2178;BME280;1095;50.992;6.798;2023-07-31T01:37:07;100501.25;;;17.03;100.00
2178;BME280;1095;50.992;6.798;2023-07-31T01:39:34;100504.13;;;17.01;100.00
2178;BME280;1095;50.992;6.798;2023-07-31T01:42:02;100495.59;;;16.99;100.00
2178;BME280;1095;50.992;6.798;2023-07-31T01:44:31;100503.72;;;16.98;100.00
2178;BME280;1095;50.992;6.798;2023-07-31T01:46:58;100495.78;;;16.98;100.00
2178;BME280;1095;50.992;6.798;2023-07-31T01:49:27;100489.03;;;16.82;100.00
2178;BME280;1095;50.992;6.798;2023-07-31T01:51:54;100505.75;;;16.96;100.00
2178;BME280;1095;50.992;6.798;2023-07-31T01:54:23;100493.75;;;16.93;100.00
2178;BME280;1095;50.992;6.798;2023-07-31T01:56:52;100501.69;;;17.00;100.00
2178;BME280;1095;50.992;6.798;2023-07-31T01:59:20;100500.44;;;17.09;100.00
2178;BME280;1095;50.992;6.798;2023-07-31T02:01:47;100497.59;;;17.10;100.00
2178;BME280;1095;50.992;6.798;2023-07-31T02:04:14;100494.97;;;17.10;100.00
2178;BME280;1095;50.992;6.798;2023-07-31T02:06:40;100491.50;;;17.10;100.00
2178;BME280;1095;50.992;6.798;2023-07-31T02:09:07;100479.31;;;17.15;100.00
2178;BME280;1095;50.992;6.798;2023-07-31T02:11:33;100480.94;;;17.16;100.00
2178;BME280;1095;50.992;6.798;2023-07-31T02:14:00;100481.34;;;17.13;100.00
2178;BME280;1095;50.992;6.798;2023-07-31T02:16:28;100482.97;;;17.14;100.00
2178;BME280;1095;50.992;6.798;2023-07-31T02:18:54;100469.56;;;17.16;100.00
2178;BME280;1095;50.992;6.798;2023-07-31T02:21:23;100466.28;;;17.14;100.00
2178;BME280;1095;50.992;6.798;2023-07-31T02:24:00;100474.41;;;17.06;100.00
2178;BME280;1095;50.992;6.798;2023-07-31T02:26:37;100471.59;;;17.14;100.00
2178;BME280;1095;50.992;6.798;2023-07-31T02:29:04;100456.94;;;17.05;100.00
2178;BME280;1095;50.992;6.798;2023-07-31T02:31:34;100453.69;;;17.09;100.00
2178;BME280;1095;50.992;6.798;2023-07-31T02:34:01;100457.53;;;17.07;100.00
2178;BME280;1095;50.992;6.798;2023-07-31T02:36:27;100438.22;;;16.93;100.00
2178;BME280;1095;50.992;6.798;2023-07-31T02:38:54;100461.00;;;17.07;100.00
2178;BME280;1095;50.992;6.798;2023-07-31T02:41:21;100466.50;;;17.19;100.00
2178;BME280;1095;50.992;6.798;2023-07-31T02:43:47;100455.31;;;17.10;100.00
2178;BME280;1095;50.992;6.798;2023-07-31T02:46:14;100458.56;;;17.19;100.00
2178;BME280;1095;50.992;6.798;2023-07-31T02:48:42;100456.53;;;17.21;100.00
2178;BME280;1095;50.992;6.798;2023-07-31T02:51:08;100458.16;;;17.22;100.00
2178;BME280;1095;50.992;6.798;2023-07-31T02:53:35;100456.13;;;17.24;100.00
2178;BME280;1095;50.992;6.798;2023-07-31T02:56:01;100459.19;;;17.21;100.00
2178;BME280;1095;50.992;6.798;2023-07-31T02:58:28;100465.06;;;17.23;100.00
2178;BME280;1095;50.992;6.798;2023-07-31T03:00:54;100451.25;;;17.21;100.00
2178;BME280;1095;50.992;6.798;2023-07-31T03:03:21;100443.53;;;17.26;100.00
2178;BME280;1095;50.992;6.798;2023-07-31T03:05:49;100441.47;;;17.28;100.00
2178;BME280;1095;50.992;6.798;2023-07-31T03:08:16;100443.13;;;17.29;100.00
2178;BME280;1095;50.992;6.798;2023-07-31T03:10:43;100451.44;;;17.26;100.00
2178;BME280;1095;50.992;6.798;2023-07-31T03:13:10;100445.56;;;17.31;100.00
2178;BME280;1095;50.992;6.798;2023-07-31T03:15:36;100440.06;;;17.32;100.00
2178;BME280;1095;50.992;6.798;2023-07-31T03:18:03;100440.25;;;17.37;100.00
2178;BME280;1095;50.992;6.798;2023-07-31T03:20:30;100442.31;;;17.35;100.00
2178;BME280;1095;50.992;6.798;2023-07-31T03:22:58;100445.97;;;17.34;100.00
2178;BME280;1095;50.992;6.798;2023-07-31T03:25:24;100435.38;;;17.34;100.00
2178;BME280;1095;50.992;6.798;2023-07-31T03:27:51;100431.53;;;17.30;100.00
2178;BME280;1095;50.992;6.798;2023-07-31T03:30:17;100430.50;;;17.31;100.00
2178;BME280;1095;50.992;6.798;2023-07-31T03:32:49;100428.06;;;17.23;100.00
2178;BME280;1095;50.992;6.798;2023-07-31T03:35:45;100436.00;;;17.23;100.00
2178;BME280;1095;50.992;6.798;2023-07-31T03:38:14;100414.22;;;17.14;100.00
2178;BME280;1095;50.992;6.798;2023-07-31T03:40:41;100419.91;;;17.11;100.00
2178;BME280;1095;50.992;6.798;2023-07-31T03:43:07;100425.00;;;17.13;100.00
2178;BME280;1095;50.992;6.798;2023-07-31T03:45:34;100410.34;;;17.04;100.00
2178;BME280;1095;50.992;6.798;2023-07-31T03:48:01;100414.63;;;17.05;100.00
2178;BME280;1095;50.992;6.798;2023-07-31T03:50:28;100419.53;;;17.21;100.00
2178;BME280;1095;50.992;6.798;2023-07-31T03:52:54;100415.44;;;17.25;100.00
2178;BME280;1095;50.992;6.798;2023-07-31T03:55:22;100416.47;;;17.24;100.00
2178;BME280;1095;50.992;6.798;2023-07-31T03:57:49;100410.78;;;17.20;100.00
2178;BME280;1095;50.992;6.798;2023-07-31T04:00:15;100426.22;;;17.23;100.00
2178;BME280;1095;50.992;6.798;2023-07-31T04:02:42;100417.69;;;17.21;100.00
2178;BME280;1095;50.992;6.798;2023-07-31T04:05:09;100424.59;;;17.29;100.00
2178;BME280;1095;50.992;6.798;2023-07-31T04:07:36;100418.28;;;17.30;100.00
2178;BME280;1095;50.992;6.798;2023-07-31T04:10:03;100401.81;;;17.21;100.00
2178;BME280;1095;50.992;6.798;2023-07-31T04:12:31;100397.16;;;17.23;100.00
2178;BME280;1095;50.992;6.798;2023-07-31T04:14:58;100409.16;;;17.26;100.00
2178;BME280;1095;50.992;6.798;2023-07-31T04:17:24;100409.34;;;17.24;100.00
2178;BME280;1095;50.992;6.798;2023-07-31T04:19:51;100408.13;;;17.27;100.00
2178;BME280;1095;50.992;6.798;2023-07-31T04:22:18;100407.09;;;17.28;100.00
2178;BME280;1095;50.992;6.798;2023-07-31T04:24:45;100397.94;;;17.31;100.00
2178;BME280;1095;50.992;6.798;2023-07-31T04:27:12;100395.72;;;17.28;100.00
2178;BME280;1095;50.992;6.798;2023-07-31T04:29:43;100395.91;;;17.26;100.00
2178;BME280;1095;50.992;6.798;2023-07-31T04:32:11;100386.78;;;17.22;100.00
2178;BME280;1095;50.992;6.798;2023-07-31T04:34:38;100399.38;;;17.20;100.00
2178;BME280;1095;50.992;6.798;2023-07-31T04:37:05;100400.81;;;17.29;100.00
2178;BME280;1095;50.992;6.798;2023-07-31T04:39:31;100398.78;;;17.31;100.00
2178;BME280;1095;50.992;6.798;2023-07-31T04:41:58;100394.09;;;17.33;100.00
2178;BME280;1095;50.992;6.798;2023-07-31T04:44:25;100391.44;;;17.33;100.00
2178;BME280;1095;50.992;6.798;2023-07-31T04:46:53;100391.03;;;17.43;100.00
2178;BME280;1095;50.992;6.798;2023-07-31T04:49:19;100383.91;;;17.37;100.00
2178;BME280;1095;50.992;6.798;2023-07-31T04:51:46;100396.72;;;17.40;100.00
2178;BME280;1095;50.992;6.798;2023-07-31T04:54:13;100381.25;;;17.43;100.00
2178;BME280;1095;50.992;6.798;2023-07-31T04:56:40;100372.47;;;17.49;100.00
2178;BME280;1095;50.992;6.798;2023-07-31T04:59:06;100377.72;;;17.63;100.00
2178;BME280;1095;50.992;6.798;2023-07-31T05:01:33;100378.75;;;17.68;100.00
2178;BME280;1095;50.992;6.798;2023-07-31T05:04:01;100367.34;;;17.74;100.00
2178;BME280;1095;50.992;6.798;2023-07-31T05:06:28;100359.59;;;17.79;100.00
2178;BME280;1095;50.992;6.798;2023-07-31T05:08:54;100356.75;;;17.81;100.00
2178;BME280;1095;50.992;6.798;2023-07-31T05:11:21;100346.97;;;17.81;100.00
2178;BME280;1095;50.992;6.798;2023-07-31T05:13:48;100349.59;;;17.88;100.00
2178;BME280;1095;50.992;6.798;2023-07-31T05:16:14;100342.00;;;17.98;100.00
2178;BME280;1095;50.992;6.798;2023-07-31T05:18:41;100347.50;;;17.97;100.00
2178;BME280;1095;50.992;6.798;2023-07-31T05:21:09;100331.59;;;17.97;100.00
2178;BME280;1095;50.992;6.798;2023-07-31T05:23:35;100331.72;;;18.15;100.00
2178;BME280;1095;50.992;6.798;2023-07-31T05:26:03;100322.13;;;18.20;99.92
2178;BME280;1095;50.992;6.798;2023-07-31T05:28:34;100325.19;;;18.17;99.59
2178;BME280;1095;50.992;6.798;2023-07-31T05:31:01;100322.75;;;18.16;99.90
2178;BME280;1095;50.992;6.798;2023-07-31T05:33:28;100301.84;;;18.01;99.02
2178;BME280;1095;50.992;6.798;2023-07-31T05:35:54;100311.81;;;18.06;99.41
2178;BME280;1095;50.992;6.798;2023-07-31T05:38:22;100306.13;;;18.02;99.36
2178;BME280;1095;50.992;6.798;2023-07-31T05:40:49;100307.56;;;17.98;99.70
2178;BME280;1095;50.992;6.798;2023-07-31T05:43:16;100311.69;;;17.94;100.00
2178;BME280;1095;50.992;6.798;2023-07-31T05:45:43;100296.47;;;17.83;100.00
2178;BME280;1095;50.992;6.798;2023-07-31T05:48:12;100294.44;;;17.85;100.00
2178;BME280;1095;50.992;6.798;2023-07-31T05:50:38;100285.47;;;17.86;100.00
2178;BME280;1095;50.992;6.798;2023-07-31T05:53:05;100292.00;;;17.83;100.00
2178;BME280;1095;50.992;6.798;2023-07-31T05:55:34;100296.91;;;17.80;100.00
2178;BME280;1095;50.992;6.798;2023-07-31T05:58:01;100305.44;;;17.82;100.00
2178;BME280;1095;50.992;6.798;2023-07-31T06:00:30;100309.94;;;17.75;100.00
2178;BME280;1095;50.992;6.798;2023-07-31T06:02:57;100303.66;;;17.69;100.00
2178;BME280;1095;50.992;6.798;2023-07-31T06:05:24;100309.53;;;17.65;100.00
2178;BME280;1095;50.992;6.798;2023-07-31T06:07:51;100310.38;;;17.58;100.00
2178;BME280;1095;50.992;6.798;2023-07-31T06:10:18;100313.25;;;17.50;100.00
2178;BME280;1095;50.992;6.798;2023-07-31T06:12:46;100316.34;;;17.47;100.00
2178;BME280;1095;50.992;6.798;2023-07-31T06:15:12;100307.63;;;17.34;100.00
2178;BME280;1095;50.992;6.798;2023-07-31T06:17:39;100309.22;;;17.48;100.00
2178;BME280;1095;50.992;6.798;2023-07-31T06:20:07;100322.03;;;17.44;100.00
2178;BME280;1095;50.992;6.798;2023-07-31T06:22:34;100318.19;;;17.47;100.00
2178;BME280;1095;50.992;6.798;2023-07-31T06:25:00;100314.28;;;17.49;100.00
2178;BME280;1095;50.992;6.798;2023-07-31T06:27:27;100316.34;;;17.47;100.00
2178;BME280;1095;50.992;6.798;2023-07-31T06:29:55;100310.59;;;17.50;100.00
2178;BME280;1095;50.992;6.798;2023-07-31T06:32:22;100307.53;;;17.53;100.00
2178;BME280;1095;50.992;6.798;2023-07-31T06:34:49;100310.56;;;17.64;100.00
2178;BME280;1095;50.992;6.798;2023-07-31T06:37:17;100297.97;;;17.66;100.00
2178;BME280;1095;50.992;6.798;2023-07-31T06:39:44;100295.72;;;17.69;100.00
2178;BME280;1095;50.992;6.798;2023-07-31T06:42:10;100299.34;;;17.75;100.00
2178;BME280;1095;50.992;6.798;2023-07-31T06:44:37;100299.91;;;17.90;100.00
2178;BME280;1095;50.992;6.798;2023-07-31T06:47:05;100298.41;;;18.01;100.00
2178;BME280;1095;50.992;6.798;2023-07-31T06:49:34;100298.75;;;18.11;100.00
2178;BME280;1095;50.992;6.798;2023-07-31T06:52:01;100291.28;;;18.33;100.00
2178;BME280;1095;50.992;6.798;2023-07-31T06:54:27;100296.63;;;18.26;100.00
2178;BME280;1095;50.992;6.798;2023-07-31T06:56:54;100297.41;;;18.33;100.00
2178;BME280;1095;50.992;6.798;2023-07-31T06:59:20;100285.81;;;18.28;100.00
2178;BME280;1095;50.992;6.798;2023-07-31T07:01:47;100289.69;;;18.25;100.00
2178;BME280;1095;50.992;6.798;2023-07-31T07:04:15;100298.41;;;18.32;100.00
2178;BME280;1095;50.992;6.798;2023-07-31T07:06:41;100294.31;;;18.36;100.00
2178;BME280;1095;50.992;6.798;2023-07-31T07:09:08;100286.78;;;18.33;100.00
2178;BME280;1095;50.992;6.798;2023-07-31T07:11:35;100295.59;;;18.27;100.00
2178;BME280;1095;50.992;6.798;2023-07-31T07:14:02;100280.72;;;18.26;100.00
2178;BME280;1095;50.992;6.798;2023-07-31T07:16:29;100288.06;;;18.24;100.00
2178;BME280;1095;50.992;6.798;2023-07-31T07:18:55;100281.31;;;18.28;100.00
2178;BME280;1095;50.992;6.798;2023-07-31T07:21:24;100293.34;;;18.31;100.00
2178;BME280;1095;50.992;6.798;2023-07-31T07:23:50;100291.31;;;18.26;100.00
2178;BME280;1095;50.992;6.798;2023-07-31T07:26:17;100299.22;;;18.33;100.00
2178;BME280;1095;50.992;6.798;2023-07-31T07:28:44;100303.16;;;18.23;100.00
2178;BME280;1095;50.992;6.798;2023-07-31T07:31:10;100298.75;;;18.11;100.00
2178;BME280;1095;50.992;6.798;2023-07-31T07:33:37;100300.78;;;18.09;100.00
2178;BME280;1095;50.992;6.798;2023-07-31T07:36:04;100297.53;;;18.07;100.00
2178;BME280;1095;50.992;6.798;2023-07-31T07:38:36;100302.03;;;18.06;100.00
2178;BME280;1095;50.992;6.798;2023-07-31T07:41:04;100305.09;;;18.03;100.00
2178;BME280;1095;50.992;6.798;2023-07-31T07:43:31;100303.69;;;18.01;100.00
2178;BME280;1095;50.992;6.798;2023-07-31T07:45:57;100303.22;;;18.10;100.00
2178;BME280;1095;50.992;6.798;2023-07-31T07:48:24;100313.25;;;18.02;100.00
2178;BME280;1095;50.992;6.798;2023-07-31T07:50:51;100307.13;;;17.70;100.00
2178;BME280;1095;50.992;6.798;2023-07-31T07:53:18;100304.66;;;17.75;100.00
2178;BME280;1095;50.992;6.798;2023-07-31T07:55:46;100304.22;;;17.78;100.00
2178;BME280;1095;50.992;6.798;2023-07-31T07:58:12;100315.19;;;17.88;100.00
2178;BME280;1095;50.992;6.798;2023-07-31T08:00:39;100312.13;;;17.91;100.00
2178;BME280;1095;50.992;6.798;2023-07-31T08:03:06;100305.19;;;17.90;100.00
2178;BME280;1095;50.992;6.798;2023-07-31T08:05:32;100300.31;;;17.87;100.00
2178;BME280;1095;50.992;6.798;2023-07-31T08:07:59;100298.28;;;17.89;100.00
2178;BME280;1095;50.992;6.798;2023-07-31T08:10:26;100285.47;;;17.86;100.00
2178;BME280;1095;50.992;6.798;2023-07-31T08:12:54;100285.66;;;17.91;100.00
2178;BME280;1095;50.992;6.798;2023-07-31T08:15:20;100285.72;;;18.09;100.00
2178;BME280;1095;50.992;6.798;2023-07-31T08:17:47;100276.75;;;18.10;100.00
2178;BME280;1095;50.992;6.798;2023-07-31T08:20:13;100270.59;;;18.16;100.00
2178;BME280;1095;50.992;6.798;2023-07-31T08:22:40;100277.69;;;18.22;100.00
2178;BME280;1095;50.992;6.798;2023-07-31T08:25:07;100265.13;;;18.43;100.00
2178;BME280;1095;50.992;6.798;2023-07-31T08:27:34;100256.94;;;18.44;100.00
2178;BME280;1095;50.992;6.798;2023-07-31T08:30:03;100259.75;;;18.49;100.00
2178;BME280;1095;50.992;6.798;2023-07-31T08:32:29;100264.84;;;18.51;100.00
2178;BME280;1095;50.992;6.798;2023-07-31T08:34:56;100256.00;;;18.39;100.00
2178;BME280;1095;50.992;6.798;2023-07-31T08:37:26;100259.03;;;18.42;100.00
2178;BME280;1095;50.992;6.798;2023-07-31T08:39:54;100245.81;;;18.36;100.00
2178;BME280;1095;50.992;6.798;2023-07-31T08:42:21;100257.47;;;18.53;100.00
2178;BME280;1095;50.992;6.798;2023-07-31T08:44:48;100257.25;;;18.61;100.00
2178;BME280;1095;50.992;6.798;2023-07-31T08:47:21;100260.69;;;18.62;100.00
2178;BME280;1095;50.992;6.798;2023-07-31T08:49:48;100242.09;;;18.68;100.00
2178;BME280;1095;50.992;6.798;2023-07-31T08:52:15;100249.94;;;18.81;100.00
2178;BME280;1095;50.992;6.798;2023-07-31T08:54:42;100245.94;;;18.90;100.00
2178;BME280;1095;50.992;6.798;2023-07-31T08:57:10;100251.56;;;19.01;100.00
2178;BME280;1095;50.992;6.798;2023-07-31T08:59:38;100243.66;;;18.94;100.00
2178;BME280;1095;50.992;6.798;2023-07-31T09:02:07;100247.22;;;18.88;100.00
2178;BME280;1095;50.992;6.798;2023-07-31T09:04:35;100241.22;;;18.74;100.00
2178;BME280;1095;50.992;6.798;2023-07-31T09:07:03;100255.50;;;18.73;100.00
2178;BME280;1095;50.992;6.798;2023-07-31T09:09:30;100251.97;;;18.54;100.00
2178;BME280;1095;50.992;6.798;2023-07-31T09:11:57;100253.63;;;18.49;100.00
2178;BME280;1095;50.992;6.798;2023-07-31T09:14:25;100259.47;;;18.64;100.00
2178;BME280;1095;50.992;6.798;2023-07-31T09:16:53;100266.38;;;18.65;100.00
2178;BME280;1095;50.992;6.798;2023-07-31T09:19:27;100258.06;;;18.55;100.00
2178;BME280;1095;50.992;6.798;2023-07-31T09:21:55;100263.03;;;18.76;100.00
2178;BME280;1095;50.992;6.798;2023-07-31T09:24:25;100240.41;;;18.92;100.00
2178;BME280;1095;50.992;6.798;2023-07-31T09:26:54;100234.38;;;19.40;99.22
2178;BME280;1095;50.992;6.798;2023-07-31T09:29:20;100223.28;;;19.91;96.91
2178;BME280;1095;50.992;6.798;2023-07-31T09:31:47;100221.75;;;20.25;94.17
2178;BME280;1095;50.992;6.798;2023-07-31T09:34:14;100211.69;;;20.15;92.48
2178;BME280;1095;50.992;6.798;2023-07-31T09:36:41;100211.75;;;20.50;91.88
2178;BME280;1095;50.992;6.798;2023-07-31T09:39:10;100218.63;;;20.86;91.69
2178;BME280;1095;50.992;6.798;2023-07-31T09:41:38;100204.34;;;20.64;89.80
2178;BME280;1095;50.992;6.798;2023-07-31T09:44:05;100194.84;;;20.45;89.63
2178;BME280;1095;50.992;6.798;2023-07-31T09:46:34;100196.44;;;20.23;89.90
2178;BME280;1095;50.992;6.798;2023-07-31T09:49:08;100204.59;;;19.98;90.06
2178;BME280;1095;50.992;6.798;2023-07-31T09:51:36;100210.25;;;20.01;90.67
2178;BME280;1095;50.992;6.798;2023-07-31T09:54:10;100194.19;;;19.96;89.35
2178;BME280;1095;50.992;6.798;2023-07-31T09:56:41;100195.69;;;19.92;90.35
2178;BME280;1095;50.992;6.798;2023-07-31T09:59:11;100189.63;;;20.15;90.63
2178;BME280;1095;50.992;6.798;2023-07-31T10:01:38;100187.31;;;20.07;90.42
2178;BME280;1095;50.992;6.798;2023-07-31T10:04:07;100180.59;;;20.04;91.03
2178;BME280;1095;50.992;6.798;2023-07-31T10:06:35;100181.66;;;20.27;90.39
2178;BME280;1095;50.992;6.798;2023-07-31T10:09:05;100179.00;;;20.15;89.29
2178;BME280;1095;50.992;6.798;2023-07-31T10:11:37;100183.16;;;20.23;88.89
2178;BME280;1095;50.992;6.798;2023-07-31T10:14:05;100180.06;;;20.26;89.00
2178;BME280;1095;50.992;6.798;2023-07-31T10:16:32;100177.28;;;20.20;88.70
2178;BME280;1095;50.992;6.798;2023-07-31T10:18:59;100185.44;;;20.07;89.17
2178;BME280;1095;50.992;6.798;2023-07-31T10:21:26;100189.03;;;20.13;90.13
2178;BME280;1095;50.992;6.798;2023-07-31T10:23:53;100190.56;;;20.20;90.38
2178;BME280;1095;50.992;6.798;2023-07-31T10:26:23;100190.44;;;20.27;90.08
2178;BME280;1095;50.992;6.798;2023-07-31T10:28:52;100191.53;;;19.96;90.18
2178;BME280;1095;50.992;6.798;2023-07-31T10:31:19;100191.06;;;19.76;92.12
2178;BME280;1095;50.992;6.798;2023-07-31T10:33:47;100186.09;;;19.79;92.78
2178;BME280;1095;50.992;6.798;2023-07-31T10:36:17;100188.63;;;19.74;92.95
2178;BME280;1095;50.992;6.798;2023-07-31T10:38:44;100178.50;;;19.83;92.47
2178;BME280;1095;50.992;6.798;2023-07-31T10:41:12;100183.69;;;19.78;92.18
2178;BME280;1095;50.992;6.798;2023-07-31T10:43:38;100183.63;;;19.66;91.33
2178;BME280;1095;50.992;6.798;2023-07-31T10:46:12;100187.47;;;19.70;92.94
2178;BME280;1095;50.992;6.798;2023-07-31T10:48:39;100195.91;;;19.79;94.03
2178;BME280;1095;50.992;6.798;2023-07-31T10:51:07;100188.06;;;19.84;94.06
2178;BME280;1095;50.992;6.798;2023-07-31T10:53:35;100189.75;;;19.67;95.28
2178;BME280;1095;50.992;6.798;2023-07-31T10:56:03;100193.91;;;19.44;95.39
2178;BME280;1095;50.992;6.798;2023-07-31T10:58:31;100197.81;;;19.60;96.19
2178;BME280;1095;50.992;6.798;2023-07-31T11:01:00;100194.16;;;19.73;95.94
2178;BME280;1095;50.992;6.798;2023-07-31T11:03:42;100180.66;;;19.86;95.19
2178;BME280;1095;50.992;6.798;2023-07-31T11:06:09;100177.59;;;20.12;93.41
2178;BME280;1095;50.992;6.798;2023-07-31T11:08:41;100164.13;;;20.26;91.46
2178;BME280;1095;50.992;6.798;2023-07-31T11:11:10;100153.97;;;20.46;90.63
2178;BME280;1095;50.992;6.798;2023-07-31T11:13:42;100141.25;;;20.48;89.63
2178;BME280;1095;50.992;6.798;2023-07-31T11:16:10;100140.09;;;20.44;89.13
2178;BME280;1095;50.992;6.798;2023-07-31T11:18:39;100138.94;;;20.63;87.92
2178;BME280;1095;50.992;6.798;2023-07-31T11:21:08;100134.53;;;20.69;88.31
2178;BME280;1095;50.992;6.798;2023-07-31T11:23:39;100143.03;;;20.82;87.79
2178;BME280;1095;50.992;6.798;2023-07-31T11:26:06;100149.72;;;20.97;87.35
2178;BME280;1095;50.992;6.798;2023-07-31T11:28:37;100152.13;;;20.98;87.31
2178;BME280;1095;50.992;6.798;2023-07-31T11:31:04;100154.06;;;21.26;86.00
2178;BME280;1095;50.992;6.798;2023-07-31T11:33:30;100142.09;;;21.29;85.44
2178;BME280;1095;50.992;6.798;2023-07-31T11:35:57;100151.69;;;21.58;85.98
2178;BME280;1095;50.992;6.798;2023-07-31T11:38:27;100128.88;;;21.79;83.72
2178;BME280;1095;50.992;6.798;2023-07-31T11:40:55;100133.97;;;21.64;83.65
2178;BME280;1095;50.992;6.798;2023-07-31T11:43:23;100123.16;;;21.70;84.41
2178;BME280;1095;50.992;6.798;2023-07-31T11:45:51;100122.50;;;21.80;83.76
2178;BME280;1095;50.992;6.798;2023-07-31T11:48:19;100136.06;;;21.95;83.90
2178;BME280;1095;50.992;6.798;2023-07-31T11:50:48;100131.53;;;21.96;83.14
2178;BME280;1095;50.992;6.798;2023-07-31T11:53:17;100139.44;;;21.91;82.88
2178;BME280;1095;50.992;6.798;2023-07-31T11:55:47;100140.41;;;21.68;83.88
2178;BME280;1095;50.992;6.798;2023-07-31T11:58:15;100131.16;;;21.42;84.58
2178;BME280;1095;50.992;6.798;2023-07-31T12:00:43;100146.31;;;21.13;85.33
2178;BME280;1095;50.992;6.798;2023-07-31T12:03:10;100133.66;;;20.92;85.95
2178;BME280;1095;50.992;6.798;2023-07-31T12:05:37;100146.72;;;20.81;87.23
2178;BME280;1095;50.992;6.798;2023-07-31T12:08:09;100139.03;;;20.68;87.25
2178;BME280;1095;50.992;6.798;2023-07-31T12:10:37;100140.94;;;20.84;87.21
2178;BME280;1095;50.992;6.798;2023-07-31T12:13:08;100138.22;;;20.79;86.80
2178;BME280;1095;50.992;6.798;2023-07-31T12:15:40;100128.13;;;20.81;87.14
2178;BME280;1095;50.992;6.798;2023-07-31T12:18:09;100128.41;;;20.68;87.04
2178;BME280;1095;50.992;6.798;2023-07-31T12:20:41;100134.06;;;20.60;86.73
2178;BME280;1095;50.992;6.798;2023-07-31T12:23:13;100130.97;;;20.51;86.97
2178;BME280;1095;50.992;6.798;2023-07-31T12:25:40;100133.97;;;20.55;87.46
2178;BME280;1095;50.992;6.798;2023-07-31T12:28:08;100117.56;;;20.46;87.28
2178;BME280;1095;50.992;6.798;2023-07-31T12:30:39;100131.63;;;20.70;86.97
2178;BME280;1095;50.992;6.798;2023-07-31T12:33:07;100114.09;;;20.98;86.28
2178;BME280;1095;50.992;6.798;2023-07-31T12:35:41;100114.69;;;21.28;85.00
2178;BME280;1095;50.992;6.798;2023-07-31T12:38:08;100110.72;;;21.59;84.43
2178;BME280;1095;50.992;6.798;2023-07-31T12:40:37;100110.22;;;21.45;84.42
2178;BME280;1095;50.992;6.798;2023-07-31T12:43:04;100109.59;;;21.55;83.96
2178;BME280;1095;50.992;6.798;2023-07-31T12:45:33;100113.44;;;21.47;84.35
2178;BME280;1095;50.992;6.798;2023-07-31T12:48:00;100118.63;;;21.54;84.90
2178;BME280;1095;50.992;6.798;2023-07-31T12:50:30;100111.28;;;21.78;84.34
2178;BME280;1095;50.992;6.798;2023-07-31T12:52:57;100105.63;;;21.74;84.14
2178;BME280;1095;50.992;6.798;2023-07-31T12:55:24;100088.59;;;21.92;83.11
2178;BME280;1095;50.992;6.798;2023-07-31T12:57:52;100082.22;;;21.93;81.66
2178;BME280;1095;50.992;6.798;2023-07-31T13:00:19;100076.19;;;22.14;81.94
2178;BME280;1095;50.992;6.798;2023-07-31T13:02:47;100081.00;;;22.01;81.78
2178;BME280;1095;50.992;6.798;2023-07-31T13:05:14;100074.22;;;21.93;82.34
2178;BME280;1095;50.992;6.798;2023-07-31T13:07:41;100079.75;;;22.25;83.14
2178;BME280;1095;50.992;6.798;2023-07-31T13:10:08;100061.91;;;22.26;81.10